createdAt,value
2018-08-31T06:21:00.956Z,19.35
2018-08-31T06:22:00.873Z,19.46
2018-08-31T06:23:00.862Z,19.49
2018-08-31T06:24:00.878Z,19.53
2018-08-31T06:25:00.848Z,19.86
2018-08-31T06:26:00.833Z,20.00
2018-08-31T06:27:00.890Z,20.15
2018-08-31T06:28:00.807Z,20.33
2018-08-31T06:29:00.823Z,20.56
2018-08-31T06:30:00.785Z,20.58
2018-08-31T06:31:00.773Z,20.78
2018-08-31T06:32:00.765Z,20.83
2018-08-31T06:33:00.773Z,20.96
2018-08-31T06:34:00.818Z,20.93
2018-08-31T06:35:00.732Z,21.09
2018-08-31T06:36:00.717Z,21.18
2018-08-31T06:37:00.705Z,21.30
2018-08-31T06:38:00.695Z,21.33
2018-08-31T06:39:00.709Z,21.38
2018-08-31T06:40:00.674Z,21.40
2018-08-31T06:41:00.700Z,21.42
2018-08-31T06:42:00.652Z,21.56
2018-08-31T06:43:00.638Z,21.64
2018-08-31T06:44:00.631Z,21.61
2018-08-31T06:45:00.642Z,21.64
2018-08-31T06:46:00.607Z,21.70
2018-08-31T06:47:00.603Z,21.81
2018-08-31T06:48:00.584Z,21.79
2018-08-31T06:49:00.597Z,21.86
2018-08-31T06:50:00.562Z,21.89
2018-08-31T06:51:00.550Z,21.90
2018-08-31T06:52:00.538Z,21.96
2018-08-31T06:53:00.531Z,21.98
2018-08-31T06:54:00.527Z,22.04
2018-08-31T06:55:00.530Z,22.11
2018-08-31T06:56:00.495Z,22.09
2018-08-31T06:57:00.483Z,22.23
2018-08-31T06:58:00.472Z,22.24
2018-08-31T06:59:00.463Z,22.21
2018-08-31T07:00:00.476Z,22.21
2018-08-31T07:01:00.437Z,22.24
2018-08-31T07:02:00.432Z,22.35
2018-08-31T07:03:00.437Z,22.19
2018-08-31T07:04:00.408Z,22.29
2018-08-31T07:05:00.420Z,22.35
2018-08-31T07:06:00.388Z,22.33
2018-08-31T07:07:00.371Z,22.36
2018-08-31T07:08:00.361Z,22.41
2018-08-31T07:09:00.352Z,22.38
2018-08-31T07:10:00.364Z,22.36
2018-08-31T07:11:00.328Z,22.38
2018-08-31T07:12:00.315Z,22.46
2018-08-31T07:13:00.308Z,22.46
2018-08-31T07:14:00.294Z,22.51
2018-08-31T07:15:00.311Z,22.52
2018-08-31T07:16:00.281Z,22.54
2018-08-31T07:17:00.265Z,22.51
2018-08-31T07:18:00.253Z,22.51
2018-08-31T07:19:00.240Z,22.51
2018-08-31T07:20:00.254Z,22.66
2018-08-31T07:21:00.216Z,22.67
2018-08-31T07:22:00.205Z,22.59
2018-08-31T07:23:00.198Z,22.61
2018-08-31T07:24:00.184Z,22.67
2018-08-31T07:25:00.198Z,22.70
2018-08-31T07:26:00.166Z,22.75
2018-08-31T07:27:00.154Z,22.72
2018-08-31T07:28:00.140Z,22.78
2018-08-31T07:29:00.130Z,22.82
2018-08-31T07:30:00.146Z,22.81
2018-08-31T07:31:00.112Z,22.84
2018-08-31T07:32:00.096Z,22.82
2018-08-31T07:33:00.086Z,22.85
2018-08-31T07:34:00.072Z,22.84
2018-08-31T07:35:00.088Z,22.86
2018-08-31T07:36:00.050Z,22.79
2018-08-31T07:37:00.043Z,22.85
2018-08-31T07:38:00.028Z,22.86
2018-08-31T07:39:00.019Z,22.96
2018-08-31T07:40:00.031Z,22.96
2018-08-31T07:40:59.994Z,22.99
2018-08-31T07:41:59.987Z,22.93
2018-08-31T07:42:59.977Z,23.00
2018-08-31T07:43:59.965Z,23.01
2018-08-31T07:44:59.977Z,23.07
2018-08-31T07:45:59.943Z,23.00
2018-08-31T07:46:59.928Z,23.18
2018-08-31T07:47:59.921Z,23.06
2018-08-31T07:48:59.908Z,23.12
2018-08-31T07:49:59.921Z,23.15
2018-08-31T07:50:59.886Z,23.14
2018-08-31T07:51:59.876Z,23.14
2018-08-31T07:52:59.866Z,23.15
2018-08-31T07:53:59.986Z,23.15
2018-08-31T07:54:59.865Z,23.07
2018-08-31T07:55:59.829Z,23.12
2018-08-31T07:56:59.818Z,23.16
2018-08-31T07:57:59.808Z,23.11
2018-08-31T07:58:59.808Z,23.19
2018-08-31T08:00:00.206Z,23.16
2018-08-31T08:00:59.791Z,23.25
2018-08-31T08:01:59.764Z,22.91
2018-08-31T08:02:59.797Z,22.61
2018-08-31T08:03:59.741Z,21.75
2018-08-31T08:04:59.753Z,21.34
2018-08-31T08:05:59.756Z,20.88
2018-08-31T08:06:59.708Z,20.64
2018-08-31T08:07:59.705Z,20.33
2018-08-31T08:08:59.686Z,20.13
2018-08-31T08:09:59.700Z,20.12
2018-08-31T08:10:59.662Z,19.89
2018-08-31T08:11:59.653Z,19.65
2018-08-31T08:12:59.648Z,19.34
2018-08-31T08:13:59.636Z,19.12
2018-08-31T08:14:59.643Z,19.06
2018-08-31T08:15:59.626Z,18.99
2018-08-31T08:16:59.598Z,18.84
2018-08-31T08:17:59.585Z,18.71
2018-08-31T08:18:59.576Z,18.53
2018-08-31T08:19:59.590Z,18.28
2018-08-31T08:20:59.552Z,18.11
2018-08-31T08:21:59.543Z,17.95
2018-08-31T08:22:59.532Z,17.76
2018-08-31T08:23:59.523Z,17.70
2018-08-31T08:25:00.130Z,17.76
2018-08-31T08:25:59.498Z,17.79
2018-08-31T08:26:59.492Z,18.09
2018-08-31T08:27:59.501Z,18.41
2018-08-31T08:28:59.464Z,18.60
2018-08-31T08:29:59.476Z,19.05
2018-08-31T08:30:59.446Z,19.43
2018-08-31T08:31:59.432Z,19.71
2018-08-31T08:32:59.429Z,19.95
2018-08-31T08:33:59.410Z,20.13
2018-08-31T08:34:59.398Z,19.53
2018-08-31T08:35:59.473Z,19.32
2018-08-31T08:36:59.435Z,19.38
2018-08-31T08:37:59.370Z,19.35
2018-08-31T08:38:59.351Z,19.55
2018-08-31T08:39:59.344Z,19.72
2018-08-31T08:40:59.415Z,19.75
2018-08-31T08:41:59.343Z,19.71
2018-08-31T08:42:59.311Z,19.52
2018-08-31T08:43:59.300Z,19.40
2018-08-31T08:44:59.287Z,19.15
2018-08-31T08:45:59.301Z,18.90
2018-08-31T08:46:59.265Z,18.79
2018-08-31T08:47:59.262Z,18.62
2018-08-31T08:48:59.258Z,18.50
2018-08-31T08:49:59.237Z,18.51
2018-08-31T08:50:59.248Z,18.53
2018-08-31T08:51:59.231Z,18.65
2018-08-31T08:52:59.200Z,18.71
2018-08-31T08:53:59.189Z,18.83
2018-08-31T08:54:59.178Z,19.02
2018-08-31T08:55:59.191Z,19.01
2018-08-31T08:56:59.156Z,19.02
2018-08-31T08:57:59.213Z,19.06
2018-08-31T08:58:59.134Z,18.96
2018-08-31T08:59:59.182Z,18.86
2018-08-31T09:00:59.135Z,18.87
2018-08-31T09:01:59.101Z,19.07
2018-08-31T09:02:59.087Z,19.09
2018-08-31T09:03:59.076Z,19.02
2018-08-31T09:04:59.068Z,19.12
2018-08-31T09:05:59.088Z,19.17
2018-08-31T09:06:59.043Z,19.23
2018-08-31T09:07:59.032Z,19.25
2018-08-31T09:08:59.021Z,19.24
2018-08-31T09:09:59.009Z,19.27
2018-08-31T09:10:59.025Z,19.42
2018-08-31T09:11:59.075Z,19.34
2018-08-31T09:12:58.977Z,19.42
2018-08-31T09:13:58.967Z,19.46
2018-08-31T09:14:58.955Z,19.49
2018-08-31T09:15:58.970Z,19.58
2018-08-31T09:16:58.934Z,19.75
2018-08-31T09:17:58.987Z,19.78
2018-08-31T09:18:58.911Z,19.87
2018-08-31T09:19:58.899Z,19.92
2018-08-31T09:20:58.915Z,20.10
2018-08-31T09:21:58.902Z,20.04
2018-08-31T09:22:58.867Z,19.97
2018-08-31T09:23:58.856Z,19.95
2018-08-31T09:24:58.844Z,19.76
2018-08-31T09:25:58.860Z,19.45
2018-08-31T09:26:58.822Z,19.47
2018-08-31T09:27:58.814Z,19.49
2018-08-31T09:28:58.804Z,19.60
2018-08-31T09:29:58.791Z,19.68
2018-08-31T09:30:58.812Z,19.80
2018-08-31T09:31:58.766Z,19.70
2018-08-31T09:32:58.758Z,19.75
2018-08-31T09:33:58.758Z,19.75
2018-08-31T09:34:58.737Z,19.76
2018-08-31T09:35:58.746Z,19.90
2018-08-31T09:36:58.712Z,19.94
2018-08-31T09:37:58.699Z,19.98
2018-08-31T09:38:58.695Z,20.01
2018-08-31T09:39:58.676Z,20.17
2018-08-31T09:40:58.690Z,20.31
2018-08-31T09:41:58.655Z,20.53
2018-08-31T09:42:58.644Z,20.46
2018-08-31T09:43:58.689Z,20.40
2018-08-31T09:44:58.622Z,20.48
2018-08-31T09:45:58.636Z,20.42
2018-08-31T09:46:58.600Z,20.48
2018-08-31T09:47:58.622Z,20.33
2018-08-31T09:48:58.579Z,20.33
2018-08-31T09:49:58.567Z,20.34
2018-08-31T09:50:58.582Z,20.42
2018-08-31T09:51:58.545Z,20.56
2018-08-31T09:52:58.533Z,20.71
2018-08-31T09:53:58.524Z,20.56
2018-08-31T09:54:58.512Z,20.58
2018-08-31T09:55:58.528Z,20.56
2018-08-31T09:56:58.488Z,20.40
2018-08-31T09:57:58.479Z,20.51
2018-08-31T09:58:58.467Z,20.57
2018-08-31T09:59:58.456Z,20.42
2018-08-31T10:00:58.471Z,20.38
2018-08-31T10:01:58.432Z,20.53
2018-08-31T10:02:58.424Z,20.46
2018-08-31T10:03:58.412Z,20.60
2018-08-31T10:04:58.401Z,20.63
2018-08-31T10:05:58.415Z,20.69
2018-08-31T10:06:58.386Z,20.69
2018-08-31T10:07:58.370Z,20.82
2018-08-31T10:08:58.355Z,20.85
2018-08-31T10:09:58.345Z,20.71
2018-08-31T10:10:58.356Z,20.73
2018-08-31T10:11:58.349Z,20.87
2018-08-31T10:12:58.312Z,20.76
2018-08-31T10:13:58.300Z,20.68
2018-08-31T10:14:58.291Z,20.72
2018-08-31T10:15:58.281Z,20.72
2018-08-31T10:16:58.298Z,20.69
2018-08-31T10:17:58.257Z,20.73
2018-08-31T10:18:58.247Z,20.71
2018-08-31T10:19:58.237Z,20.96
2018-08-31T10:20:58.225Z,21.01
2018-08-31T10:21:58.254Z,20.76
2018-08-31T10:22:58.203Z,20.83
2018-08-31T10:23:58.191Z,21.01
2018-08-31T10:24:58.180Z,21.08
2018-08-31T10:25:58.172Z,21.18
2018-08-31T10:26:58.183Z,21.33
2018-08-31T10:27:58.150Z,21.40
2018-08-31T10:28:58.136Z,21.49
2018-08-31T10:29:58.161Z,21.63
2018-08-31T10:30:58.119Z,21.37
2018-08-31T10:31:58.126Z,21.28
2018-08-31T10:32:58.091Z,21.18
2018-08-31T10:33:58.084Z,21.03
2018-08-31T10:34:58.071Z,20.85
2018-08-31T10:35:58.059Z,20.69
2018-08-31T10:36:58.093Z,20.46
2018-08-31T10:37:58.036Z,20.31
2018-08-31T10:38:58.025Z,20.30
2018-08-31T10:39:58.015Z,20.46
2018-08-31T10:40:58.004Z,20.48
2018-08-31T10:41:58.018Z,20.38
2018-08-31T10:42:57.978Z,20.30
2018-08-31T10:43:57.968Z,20.33
2018-08-31T10:44:57.959Z,20.25
2018-08-31T10:45:57.948Z,20.38
2018-08-31T10:46:57.962Z,20.35
2018-08-31T10:47:57.928Z,20.56
2018-08-31T10:48:57.915Z,20.68
2018-08-31T10:49:57.903Z,20.88
2018-08-31T10:50:57.893Z,21.16
2018-08-31T10:51:57.906Z,21.37
2018-08-31T10:52:57.870Z,21.59
2018-08-31T10:53:57.858Z,21.77
2018-08-31T10:54:57.846Z,21.93
2018-08-31T10:55:57.838Z,21.85
2018-08-31T10:56:57.850Z,21.71
2018-08-31T10:57:57.814Z,21.75
2018-08-31T10:58:57.804Z,21.86
2018-08-31T10:59:57.792Z,21.73
2018-08-31T11:00:57.781Z,21.93
2018-08-31T11:01:57.793Z,22.09
2018-08-31T11:02:57.757Z,22.26
2018-08-31T11:03:57.750Z,22.31
2018-08-31T11:04:57.737Z,22.44
2018-08-31T11:05:57.726Z,22.46
2018-08-31T11:06:57.736Z,22.38
2018-08-31T11:07:57.702Z,22.35
2018-08-31T11:08:57.692Z,22.38
2018-08-31T11:09:57.681Z,22.48
2018-08-31T11:10:57.669Z,22.39
2018-08-31T11:11:57.687Z,22.46
2018-08-31T11:12:57.655Z,22.48
2018-08-31T11:13:57.648Z,22.51
2018-08-31T11:14:57.624Z,22.74
2018-08-31T11:15:57.612Z,22.76
2018-08-31T11:16:57.626Z,22.89
2018-08-31T11:17:57.590Z,22.78
2018-08-31T11:18:57.735Z,22.91
2018-08-31T11:19:57.570Z,23.01
2018-08-31T11:20:57.561Z,23.16
2018-08-31T11:21:57.570Z,23.18
2018-08-31T11:22:57.536Z,23.34
2018-08-31T11:23:57.525Z,23.49
2018-08-31T11:24:57.577Z,23.57
2018-08-31T11:25:57.655Z,23.63
2018-08-31T11:26:57.958Z,23.74
2018-08-31T11:27:58.768Z,23.79
2018-08-31T11:28:57.477Z,23.81
2018-08-31T11:29:57.747Z,23.93
2018-08-31T11:30:57.446Z,23.86
2018-08-31T11:31:57.466Z,23.96
2018-08-31T11:32:57.428Z,23.90
2018-08-31T11:33:57.415Z,23.99
2018-08-31T11:34:57.403Z,24.09
2018-08-31T11:35:57.392Z,24.04
2018-08-31T11:36:57.407Z,24.08
2018-08-31T11:37:57.423Z,24.06
2018-08-31T11:38:57.360Z,24.14
2018-08-31T11:39:57.349Z,24.09
2018-08-31T11:40:57.706Z,24.11
2018-08-31T11:41:57.746Z,24.09
2018-08-31T11:42:57.358Z,24.11
2018-08-31T11:43:57.304Z,24.15
2018-08-31T11:44:57.294Z,24.14
2018-08-31T11:45:58.018Z,24.12
2018-08-31T11:46:57.296Z,24.16
2018-08-31T11:47:57.339Z,24.21
2018-08-31T11:48:57.253Z,24.12
2018-08-31T11:49:57.316Z,24.23
2018-08-31T11:50:57.236Z,24.27
2018-08-31T11:51:57.353Z,24.29
2018-08-31T11:52:57.211Z,24.29
2018-08-31T11:53:57.564Z,24.30
2018-08-31T11:54:57.193Z,24.27
2018-08-31T11:55:57.250Z,24.30
2018-08-31T11:56:57.161Z,24.34
2018-08-31T11:57:57.250Z,24.36
2018-08-31T11:58:57.371Z,24.42
2018-08-31T11:59:57.205Z,24.46
2018-08-31T12:00:57.187Z,24.48
2018-08-31T12:01:57.198Z,24.51
2018-08-31T12:02:57.195Z,24.52
2018-08-31T12:03:57.093Z,24.59
2018-08-31T12:04:57.072Z,24.60
2018-08-31T12:05:57.062Z,24.60
2018-08-31T12:06:57.052Z,24.67
2018-08-31T12:07:58.179Z,24.64
2018-08-31T12:08:57.178Z,24.68
2018-08-31T12:09:57.080Z,24.70
2018-08-31T12:10:57.006Z,24.84
2018-08-31T12:11:57.072Z,24.79
2018-08-31T12:12:57.012Z,24.71
2018-08-31T12:13:57.374Z,24.80
2018-08-31T12:14:56.962Z,24.84
2018-08-31T12:15:56.951Z,24.93
2018-08-31T12:16:57.008Z,24.92
2018-08-31T12:17:58.162Z,24.89
2018-08-31T12:18:57.180Z,24.92
2018-08-31T12:19:56.930Z,24.99
2018-08-31T12:20:57.246Z,24.99
2018-08-31T12:21:56.978Z,25.04
2018-08-31T12:23:01.248Z,25.11
2018-08-31T12:23:57.413Z,25.12
2018-08-31T12:24:56.924Z,25.17
2018-08-31T12:25:58.089Z,25.24
2018-08-31T12:26:57.830Z,25.23
2018-08-31T12:27:56.843Z,25.27
2018-08-31T12:28:56.907Z,25.27
2018-08-31T12:29:57.502Z,25.29
2018-08-31T12:30:56.786Z,25.35
2018-08-31T12:31:57.190Z,25.36
2018-08-31T12:32:56.787Z,25.38
2018-08-31T12:33:59.239Z,25.38
2018-08-31T12:34:57.372Z,25.38
2018-08-31T12:35:57.015Z,25.35
2018-08-31T12:36:56.719Z,25.36
2018-08-31T12:37:56.861Z,25.38
2018-08-31T12:38:56.752Z,25.38
2018-08-31T12:39:56.687Z,25.41
2018-08-31T12:40:56.678Z,25.46
2018-08-31T12:41:56.683Z,25.54
2018-08-31T12:42:56.684Z,25.57
2018-08-31T12:43:56.842Z,25.56
2018-08-31T12:44:56.637Z,25.56
2018-08-31T12:45:56.625Z,25.67
2018-08-31T12:46:56.810Z,25.74
2018-08-31T12:47:56.697Z,25.67
2018-08-31T12:48:56.590Z,25.71
2018-08-31T12:49:56.579Z,25.81
2018-08-31T12:50:56.568Z,25.79
2018-08-31T12:51:56.560Z,25.85
2018-08-31T12:52:56.580Z,25.97
2018-08-31T12:53:56.536Z,26.00
2018-08-31T12:54:56.525Z,26.04
2018-08-31T12:55:57.298Z,26.01
2018-08-31T12:56:56.502Z,25.97
2018-08-31T12:57:56.515Z,26.13
2018-08-31T12:58:56.480Z,26.12
2018-08-31T12:59:56.513Z,26.08
2018-08-31T13:00:56.461Z,26.16
2018-08-31T13:01:56.553Z,26.21
2018-08-31T13:02:56.464Z,26.35
2018-08-31T13:03:56.426Z,26.29
2018-08-31T13:04:56.417Z,26.41
2018-08-31T13:05:56.405Z,26.39
2018-08-31T13:06:56.523Z,26.44
2018-08-31T13:07:56.406Z,26.50
2018-08-31T13:08:56.407Z,26.59
2018-08-31T13:09:56.362Z,26.57
2018-08-31T13:10:56.361Z,26.71
2018-08-31T13:11:56.342Z,26.64
2018-08-31T13:12:56.354Z,26.69
2018-08-31T13:13:56.319Z,26.66
2018-08-31T13:14:56.308Z,26.65
2018-08-31T13:15:56.298Z,26.69
2018-08-31T13:16:56.286Z,26.78
2018-08-31T13:17:56.299Z,26.79
2018-08-31T13:18:56.265Z,26.88
2018-08-31T13:19:56.295Z,26.97
2018-08-31T13:20:56.244Z,26.87
2018-08-31T13:21:56.234Z,27.01
2018-08-31T13:22:56.246Z,27.06
2018-08-31T13:23:56.211Z,27.11
2018-08-31T13:24:56.200Z,27.25
2018-08-31T13:25:56.188Z,27.23
2018-08-31T13:26:56.179Z,27.23
2018-08-31T13:27:56.194Z,27.35
2018-08-31T13:28:56.159Z,27.49
2018-08-31T13:29:56.148Z,27.49
2018-08-31T13:30:56.139Z,27.65
2018-08-31T13:31:56.128Z,27.72
2018-08-31T13:32:56.141Z,27.71
2018-08-31T13:33:56.108Z,27.77
2018-08-31T13:34:56.096Z,27.93
2018-08-31T13:35:56.085Z,27.99
2018-08-31T13:36:56.077Z,28.03
2018-08-31T13:37:56.089Z,28.09
2018-08-31T13:38:56.079Z,28.08
2018-08-31T13:39:56.043Z,28.13
2018-08-31T13:40:56.034Z,28.21
2018-08-31T13:41:56.020Z,28.24
2018-08-31T13:42:56.013Z,28.40
2018-08-31T13:43:56.049Z,28.50
2018-08-31T13:44:55.989Z,28.54
2018-08-31T13:45:55.976Z,28.58
2018-08-31T13:46:55.967Z,28.72
2018-08-31T13:47:55.959Z,28.80
2018-08-31T13:48:55.970Z,28.82
2018-08-31T13:49:55.940Z,28.92
2018-08-31T13:50:55.927Z,28.97
2018-08-31T13:51:55.913Z,29.03
2018-08-31T13:52:55.904Z,29.11
2018-08-31T13:53:55.919Z,29.18
2018-08-31T13:54:55.885Z,29.07
2018-08-31T13:55:55.874Z,28.98
2018-08-31T13:56:55.863Z,28.52
2018-08-31T13:57:55.856Z,28.55
2018-08-31T13:58:55.878Z,28.61
2018-08-31T13:59:55.831Z,28.65
2018-08-31T14:00:55.821Z,28.74
2018-08-31T14:01:55.806Z,28.91
2018-08-31T14:02:55.797Z,29.18
2018-08-31T14:03:55.817Z,29.42
2018-08-31T14:04:55.778Z,29.78
2018-08-31T14:05:55.766Z,29.97
2018-08-31T14:06:55.762Z,30.38
2018-08-31T14:07:55.743Z,30.61
2018-08-31T14:08:55.759Z,30.79
2018-08-31T14:09:55.728Z,31.07
2018-08-31T14:10:55.712Z,31.19
2018-08-31T14:11:55.704Z,31.28
2018-08-31T14:12:55.700Z,31.37
2018-08-31T14:13:55.707Z,30.81
2018-08-31T14:14:55.673Z,30.11
2018-08-31T14:15:55.656Z,29.51
2018-08-31T14:16:55.647Z,29.26
2018-08-31T14:17:55.636Z,29.05
2018-08-31T14:18:55.649Z,28.77
2018-08-31T14:19:55.615Z,28.27
2018-08-31T14:20:55.637Z,28.08
2018-08-31T14:21:55.594Z,27.78
2018-08-31T14:22:55.583Z,27.58
2018-08-31T14:23:55.598Z,27.33
2018-08-31T14:24:55.563Z,27.24
2018-08-31T14:25:55.550Z,26.96
2018-08-31T14:26:55.594Z,26.79
2018-08-31T14:27:55.531Z,26.71
2018-08-31T14:28:55.548Z,26.69
2018-08-31T14:29:55.686Z,26.66
2018-08-31T14:30:55.498Z,26.69
2018-08-31T14:31:55.491Z,26.69
2018-08-31T14:32:55.478Z,26.73
2018-08-31T14:33:55.494Z,26.91
2018-08-31T14:34:55.488Z,26.93
2018-08-31T14:35:55.450Z,27.08
2018-08-31T14:36:55.444Z,27.48
2018-08-31T14:37:55.428Z,28.02
2018-08-31T14:38:55.441Z,28.54
2018-08-31T14:39:55.408Z,28.94
2018-08-31T14:40:55.398Z,29.18
2018-08-31T14:41:55.386Z,29.49
2018-08-31T14:42:55.375Z,29.73
2018-08-31T14:43:55.406Z,29.92
2018-08-31T14:44:55.360Z,30.03
2018-08-31T14:45:55.346Z,30.15
2018-08-31T14:46:55.343Z,30.21
2018-08-31T14:47:55.322Z,30.18
2018-08-31T14:48:55.333Z,30.22
2018-08-31T14:49:55.387Z,30.10
2018-08-31T14:50:55.292Z,30.48
2018-08-31T14:51:55.282Z,30.46
2018-08-31T14:52:55.265Z,30.08
2018-08-31T14:53:55.289Z,29.76
2018-08-31T14:54:55.246Z,29.35
2018-08-31T14:55:55.235Z,29.10
2018-08-31T14:56:55.223Z,28.85
2018-08-31T14:57:55.216Z,28.72
2018-08-31T14:58:55.228Z,28.45
2018-08-31T14:59:55.198Z,28.03
2018-08-31T15:00:55.181Z,27.86
2018-08-31T15:01:55.170Z,27.71
2018-08-31T15:02:55.159Z,28.09
2018-08-31T15:03:55.281Z,28.51
2018-08-31T15:04:55.139Z,28.91
2018-08-31T15:05:55.140Z,28.95
2018-08-31T15:06:55.117Z,28.82
2018-08-31T15:07:55.104Z,29.03
2018-08-31T15:08:55.119Z,29.48
2018-08-31T15:09:55.088Z,29.85
2018-08-31T15:10:55.075Z,30.38
2018-08-31T15:11:55.073Z,30.32
2018-08-31T15:12:55.060Z,30.00
2018-08-31T15:13:55.072Z,29.86
2018-08-31T15:14:55.032Z,29.97
2018-08-31T15:15:55.024Z,29.89
2018-08-31T15:16:55.013Z,29.76
2018-08-31T15:17:55.000Z,29.70
2018-08-31T15:18:54.991Z,29.71
2018-08-31T15:19:55.007Z,29.82
2018-08-31T15:20:54.968Z,29.52
2018-08-31T15:21:54.959Z,29.14
2018-08-31T15:22:54.950Z,28.85
2018-08-31T15:23:54.939Z,28.76
2018-08-31T15:24:54.952Z,28.82
2018-08-31T15:25:54.920Z,29.00
2018-08-31T15:26:54.907Z,29.14
2018-08-31T15:27:54.896Z,29.20
2018-08-31T15:28:54.885Z,29.11
2018-08-31T15:29:54.904Z,29.05
2018-08-31T15:30:54.862Z,28.98
2018-08-31T15:31:54.854Z,28.82
2018-08-31T15:32:54.843Z,28.80
2018-08-31T15:33:54.835Z,28.80
2018-08-31T15:34:54.844Z,28.54
2018-08-31T15:35:54.813Z,28.51
2018-08-31T15:36:54.816Z,28.45
2018-08-31T15:37:54.789Z,28.38
2018-08-31T15:38:54.780Z,28.57
2018-08-31T15:39:54.793Z,28.92
2018-08-31T15:40:54.761Z,29.14
2018-08-31T15:41:54.750Z,29.33
2018-08-31T15:42:54.737Z,29.51
2018-08-31T15:43:54.727Z,29.45
2018-08-31T15:44:54.740Z,29.45
2018-08-31T15:45:54.706Z,29.27
2018-08-31T15:46:54.696Z,28.98
2018-08-31T15:47:54.684Z,28.77
2018-08-31T15:48:54.672Z,28.28
2018-08-31T15:49:54.873Z,28.09
2018-08-31T15:50:54.653Z,27.88
2018-08-31T15:51:54.644Z,27.76
2018-08-31T15:52:54.632Z,27.68
2018-08-31T15:53:54.625Z,27.65
2018-08-31T15:54:54.634Z,27.50
2018-08-31T15:55:54.619Z,27.34
2018-08-31T15:56:54.590Z,27.23
2018-08-31T15:57:54.578Z,26.75
2018-08-31T15:58:54.567Z,26.81
2018-08-31T15:59:54.582Z,26.66
2018-08-31T16:00:54.547Z,26.56
2018-08-31T16:01:54.540Z,26.49
2018-08-31T16:02:54.523Z,26.44
2018-08-31T16:03:54.515Z,26.32
2018-08-31T16:04:54.528Z,26.16
2018-08-31T16:05:54.494Z,26.17
2018-08-31T16:06:54.484Z,26.04
2018-08-31T16:07:54.473Z,25.97
2018-08-31T16:08:54.460Z,25.96
2018-08-31T16:09:54.475Z,25.75
2018-08-31T16:10:54.437Z,25.69
2018-08-31T16:11:54.429Z,25.74
2018-08-31T16:12:54.416Z,25.69
2018-08-31T16:13:54.406Z,25.41
2018-08-31T16:14:54.420Z,25.41
2018-08-31T16:15:54.385Z,25.36
2018-08-31T16:16:54.374Z,25.27
2018-08-31T16:17:54.377Z,25.36
2018-08-31T16:18:54.432Z,25.27
2018-08-31T16:19:54.366Z,25.29
2018-08-31T16:20:54.379Z,25.11
2018-08-31T16:21:54.318Z,24.89
2018-08-31T16:22:54.306Z,24.90
2018-08-31T16:23:54.310Z,24.84
2018-08-31T16:24:54.310Z,24.79
2018-08-31T16:25:54.274Z,24.80
2018-08-31T16:26:54.261Z,24.74
2018-08-31T16:27:54.251Z,24.82
2018-08-31T16:28:54.278Z,24.63
2018-08-31T16:29:54.256Z,24.63
2018-08-31T16:30:54.221Z,24.60
2018-08-31T16:31:54.211Z,24.63
2018-08-31T16:32:54.200Z,24.70
2018-08-31T16:33:54.187Z,24.83
2018-08-31T16:34:54.206Z,24.77
2018-08-31T16:35:54.165Z,24.77
2018-08-31T16:36:54.162Z,24.60
2018-08-31T16:37:54.144Z,24.66
2018-08-31T16:38:54.337Z,24.79
2018-08-31T16:39:54.150Z,24.63
2018-08-31T16:40:54.112Z,24.46
2018-08-31T16:41:54.102Z,24.44
2018-08-31T16:42:54.095Z,24.27
2018-08-31T16:43:54.080Z,24.21
2018-08-31T16:44:54.098Z,24.26
2018-08-31T16:45:54.058Z,24.27
2018-08-31T16:46:54.049Z,24.27
2018-08-31T16:47:54.061Z,24.00
2018-08-31T16:48:54.025Z,24.09
2018-08-31T16:49:54.063Z,23.94
2018-08-31T16:50:54.004Z,24.00
2018-08-31T16:51:54.002Z,23.97
2018-08-31T16:52:53.984Z,23.92
2018-08-31T16:53:53.978Z,23.97
2018-08-31T16:54:53.982Z,23.87
2018-08-31T16:55:53.971Z,23.77
2018-08-31T16:56:53.937Z,23.67
2018-08-31T16:57:53.948Z,23.54
2018-08-31T16:58:53.919Z,23.50
2018-08-31T16:59:53.941Z,23.56
2018-08-31T17:00:53.897Z,23.54
2018-08-31T17:01:53.882Z,23.68
2018-08-31T17:02:53.879Z,23.68
2018-08-31T17:03:53.860Z,23.71
2018-08-31T17:04:53.854Z,23.89
2018-08-31T17:05:53.864Z,23.87
2018-08-31T17:06:53.828Z,23.79
2018-08-31T17:07:53.886Z,23.75
2018-08-31T17:08:53.805Z,23.72
2018-08-31T17:09:53.794Z,23.68
2018-08-31T17:10:53.809Z,23.56
2018-08-31T17:11:53.773Z,23.39
2018-08-31T17:12:53.763Z,23.31
2018-08-31T17:13:53.750Z,23.22
2018-08-31T17:14:53.744Z,23.25
2018-08-31T17:15:53.755Z,23.19
2018-08-31T17:16:53.774Z,23.04
2018-08-31T17:17:53.705Z,22.94
2018-08-31T17:18:53.696Z,22.86
2018-08-31T17:19:53.685Z,22.70
2018-08-31T17:20:53.696Z,22.69
2018-08-31T17:21:53.669Z,22.48
2018-08-31T17:22:53.653Z,22.36
2018-08-31T17:23:53.640Z,22.29
2018-08-31T17:24:53.630Z,22.01
2018-08-31T17:25:53.641Z,21.82
2018-08-31T17:26:53.608Z,21.81
2018-08-31T17:27:53.595Z,21.82
2018-08-31T17:28:53.604Z,21.96
2018-08-31T17:29:53.728Z,21.98
2018-08-31T17:30:53.588Z,22.14
2018-08-31T17:31:53.553Z,22.21
2018-08-31T17:32:53.542Z,22.31
2018-08-31T17:33:53.527Z,22.39
2018-08-31T17:34:53.519Z,22.48
2018-08-31T17:35:53.532Z,22.60
2018-08-31T17:36:53.496Z,22.70
2018-08-31T17:37:53.486Z,22.75
2018-08-31T17:38:53.476Z,22.81
2018-08-31T17:39:53.464Z,22.85
2018-08-31T17:40:53.477Z,22.79
2018-08-31T17:41:53.444Z,22.85
2018-08-31T17:42:53.431Z,22.96
2018-08-31T17:43:53.420Z,22.94
2018-08-31T17:44:53.408Z,22.96
2018-08-31T17:45:53.423Z,22.94
2018-08-31T17:46:53.385Z,22.97
2018-08-31T17:47:53.377Z,22.96
2018-08-31T17:48:53.365Z,23.00
2018-08-31T17:49:53.353Z,23.03
2018-08-31T17:50:53.369Z,23.03
2018-08-31T17:51:53.331Z,23.01
2018-08-31T17:52:53.319Z,23.11
2018-08-31T17:53:53.309Z,23.09
2018-08-31T17:54:53.306Z,23.09
2018-08-31T17:55:53.314Z,23.04
2018-08-31T17:56:53.276Z,23.11
2018-08-31T17:57:53.285Z,23.04
2018-08-31T17:58:53.254Z,23.15
2018-08-31T17:59:53.242Z,23.04
2018-08-31T18:00:53.254Z,23.04
2018-08-31T18:01:53.220Z,22.97
2018-08-31T18:02:53.210Z,22.99
2018-08-31T18:03:53.198Z,23.01
2018-08-31T18:04:53.186Z,22.99
2018-08-31T18:05:53.202Z,22.97
2018-08-31T18:06:53.165Z,23.00
2018-08-31T18:07:53.153Z,22.93
2018-08-31T18:08:53.144Z,22.97
2018-08-31T18:09:53.131Z,23.00
2018-08-31T18:10:53.143Z,22.94
2018-08-31T18:11:53.109Z,22.93
2018-08-31T18:12:53.098Z,22.91
2018-08-31T18:13:53.089Z,22.89
2018-08-31T18:14:53.079Z,22.84
2018-08-31T18:15:53.177Z,22.93
2018-08-31T18:16:53.054Z,22.88
2018-08-31T18:17:53.042Z,22.81
2018-08-31T18:18:53.029Z,22.85
2018-08-31T18:19:53.019Z,22.85
2018-08-31T18:20:53.034Z,22.81
2018-08-31T18:21:52.997Z,22.76
2018-08-31T18:22:52.987Z,22.81
2018-08-31T18:23:52.974Z,22.79
2018-08-31T18:24:52.963Z,22.75
2018-08-31T18:25:53.032Z,22.75
2018-08-31T18:26:52.942Z,22.76
2018-08-31T18:27:52.930Z,22.74
2018-08-31T18:28:52.919Z,22.67
2018-08-31T18:29:52.908Z,22.74
2018-08-31T18:30:52.920Z,22.70
2018-08-31T18:31:52.886Z,22.64
2018-08-31T18:32:52.887Z,22.69
2018-08-31T18:33:52.865Z,22.72
2018-08-31T18:34:52.852Z,22.64
2018-08-31T18:35:52.865Z,22.70
2018-08-31T18:36:52.831Z,22.70
2018-08-31T18:37:52.818Z,22.61
2018-08-31T18:38:52.828Z,22.61
2018-08-31T18:39:52.827Z,22.67
2018-08-31T18:40:52.811Z,22.57
2018-08-31T18:41:52.773Z,22.48
2018-08-31T18:42:52.762Z,22.52
2018-08-31T18:43:52.752Z,22.51
2018-08-31T18:44:52.745Z,22.59
2018-08-31T18:45:52.732Z,22.52
2018-08-31T18:46:52.769Z,22.54
2018-08-31T18:47:52.710Z,22.56
2018-08-31T18:48:52.697Z,22.48
2018-08-31T18:49:52.687Z,22.57
2018-08-31T18:50:52.675Z,22.52
2018-08-31T18:51:52.692Z,22.48
2018-08-31T18:52:52.653Z,22.46
2018-08-31T18:53:52.642Z,22.46
2018-08-31T18:54:52.634Z,22.48
2018-08-31T18:55:52.621Z,22.51
2018-08-31T18:56:52.633Z,22.38
2018-08-31T18:57:52.627Z,22.35
2018-08-31T18:58:52.587Z,22.36
2018-08-31T18:59:52.578Z,22.42
2018-08-31T19:00:52.566Z,22.39
2018-08-31T19:01:52.579Z,22.39
2018-08-31T19:02:52.542Z,22.31
2018-08-31T19:03:52.531Z,22.39
2018-08-31T19:04:52.520Z,22.36
2018-08-31T19:05:52.509Z,22.33
2018-08-31T19:06:52.531Z,22.33
2018-08-31T19:07:52.490Z,22.29
2018-08-31T19:08:52.478Z,22.36
2018-08-31T19:09:52.469Z,22.29
2018-08-31T19:10:52.453Z,22.38
2018-08-31T19:11:52.468Z,22.30
2018-08-31T19:12:52.454Z,22.21